Kaprifol — 5BXX2 — position and weather

sailwx.info

Track history (hours):
 
Tides and Currents Weather Stations Pressure Air Temp Water Temp Dewpoint Dewpoint Depression Visibility Wind Speed Wind Dir Waves Ship Positions

Kaprifol

Last reported at 2017-Mar-25 12:32 UTC. Time now 2017-Mar-25 17:40 UTC.
Position N 55°57' W 001°53'.

Length 90 m; draft 4.5 m.

Type: Tanker. MMSI: 210445000.

Date/timePositionNaut miles runAvg speedWind from/ knotsBaromVisibWave heightAir tempDewpointWater temp
2017-Mar-25 12:32N 55°57' W 001°53'1111.2
2017-Mar-25 11:33N 56°01' W 002°12'1111.0
2017-Mar-25 10:33N 56°04' W 002°30'1010.5
2017-Mar-25 09:33N 56°05' W 002°49'1010.4
2017-Mar-25 08:33N 56°03' W 003°07'1110.5
2017-Mar-25 07:33N 56°00' W 003°25'5 0.2
2017-Mar-23 22:33N 56°02' W 003°16'10 9.8
2017-Mar-23 21:33N 56°05' W 002°60'10 9.9
2017-Mar-23 20:33N 56°08' W 002°43'1110.7
2017-Mar-23 19:33N 56°12' W 002°25'1010.4
2017-Mar-23 18:33N 56°21' W 002°15'1010.1
2017-Mar-23 17:33N 56°30' W 002°06'11 9.9
2017-Mar-23 16:29N 56°39' W 001°56'118 9.1
2017-Mar-23 03:32N 58°33' W 002°51'1111.1
2017-Mar-23 02:33N 58°42' W 003°03'10 9.9
2017-Mar-23 01:31N 58°45' W 003°22'8 8.6
2017-Mar-23 00:33N 58°51' W 003°32'9 9.0
2017-Mar-22 23:33N 58°58' W 003°43'9 9.3
2017-Mar-22 22:33N 59°05' W 003°54'9 9.2
2017-Mar-22 21:33N 59°13' W 004°05'  
Track history (hours):
 
Tides and Currents Weather Stations Pressure Air Temp Water Temp Dewpoint Dewpoint Depression Visibility Wind Speed Wind Dir Waves Ship Positions

Kaprifol

Last reported at 2017-Mar-25 12:32 UTC. Time now 2017-Mar-25 17:40 UTC.
Position N 55°57' W 001°53'.

Length 90 m; draft 4.5 m.

Type: Tanker. MMSI: 210445000.

Date/timePositionNaut miles runAvg speedWind from/ knotsBaromVisibWave heightAir tempDewpointWater temp
2017-Mar-25 12:32N 55°57' W 001°53'1111.2
2017-Mar-25 11:33N 56°01' W 002°12'1111.0
2017-Mar-25 10:33N 56°04' W 002°30'1010.5
2017-Mar-25 09:33N 56°05' W 002°49'1010.4
2017-Mar-25 08:33N 56°03' W 003°07'1110.5
2017-Mar-25 07:33N 56°00' W 003°25'5 0.2
2017-Mar-23 22:33N 56°02' W 003°16'10 9.8
2017-Mar-23 21:33N 56°05' W 002°60'10 9.9
2017-Mar-23 20:33N 56°08' W 002°43'1110.7
2017-Mar-23 19:33N 56°12' W 002°25'1010.4
2017-Mar-23 18:33N 56°21' W 002°15'1010.1
2017-Mar-23 17:33N 56°30' W 002°06'11 9.9
2017-Mar-23 16:29N 56°39' W 001°56'118 9.1
2017-Mar-23 03:32N 58°33' W 002°51'1111.1
2017-Mar-23 02:33N 58°42' W 003°03'10 9.9
2017-Mar-23 01:31N 58°45' W 003°22'8 8.6
2017-Mar-23 00:33N 58°51' W 003°32'9 9.0
2017-Mar-22 23:33N 58°58' W 003°43'9 9.3
2017-Mar-22 22:33N 59°05' W 003°54'9 9.2
2017-Mar-22 21:33N 59°13' W 004°05'  

Dump ship's entire track history